sensor_id;sensor_type;location;lat;lon;timestamp;P1;durP1;ratioP1;P2;durP2;ratioP2
61570;SDS011;47463;49.884;10.010;2022-12-13T00:00:00;52.8;;;21.6;;
61570;SDS011;47463;49.884;10.010;2022-12-13T00:05:00;52.8;;;21.6;;
61570;SDS011;47463;49.884;10.010;2022-12-13T00:10:00;55.4;;;20;;
61570;SDS011;47463;49.884;10.010;2022-12-13T00:15:00;50;;;20;;
61570;SDS011;47463;49.884;10.010;2022-12-13T00:20:00;58.5;;;22;;
61570;SDS011;47463;49.884;10.010;2022-12-13T00:25:00;53.1;;;23.5;;
61570;SDS011;47463;49.884;10.010;2022-12-13T00:30:00;56.3;;;22.4;;
61570;SDS011;47463;49.884;10.010;2022-12-13T00:35:00;56.3;;;22.4;;
61570;SDS011;47463;49.884;10.010;2022-12-13T00:40:00;62.6;;;24.5;;
61570;SDS011;47463;49.884;10.010;2022-12-13T00:45:00;48.9;;;20.4;;
61570;SDS011;47463;49.884;10.010;2022-12-13T00:50:00;53.5;;;22.3;;
61570;SDS011;47463;49.884;10.010;2022-12-13T00:55:00;57.4;;;23.5;;
61570;SDS011;47463;49.884;10.010;2022-12-13T01:00:00;56.2;;;22.2;;
61570;SDS011;47463;49.884;10.010;2022-12-13T01:05:00;56.2;;;22.2;;
61570;SDS011;47463;49.884;10.010;2022-12-13T01:10:00;55;;;21.8;;
61570;SDS011;47463;49.884;10.010;2022-12-13T01:15:00;48.1;;;20.5;;
61570;SDS011;47463;49.884;10.010;2022-12-13T01:20:00;59.3;;;22.1;;
61570;SDS011;47463;49.884;10.010;2022-12-13T01:25:00;54.7;;;21.9;;
61570;SDS011;47463;49.884;10.010;2022-12-13T01:30:00;55.9;;;22;;
61570;SDS011;47463;49.884;10.010;2022-12-13T01:35:00;55.9;;;22;;
61570;SDS011;47463;49.884;10.010;2022-12-13T01:40:00;54.7;;;20;;
61570;SDS011;47463;49.884;10.010;2022-12-13T01:45:02;54.2;;;21.5;;
61570;SDS011;47463;49.884;10.010;2022-12-13T01:50:00;53.4;;;21.3;;
61570;SDS011;47463;49.884;10.010;2022-12-13T01:55:00;55.7;;;23.1;;
61570;SDS011;47463;49.884;10.010;2022-12-13T02:00:00;52.7;;;20.2;;
61570;SDS011;47463;49.884;10.010;2022-12-13T02:05:02;52.7;;;20.2;;
61570;SDS011;47463;49.884;10.010;2022-12-13T02:10:00;45.8;;;18.6;;
61570;SDS011;47463;49.884;10.010;2022-12-13T02:15:00;53.1;;;20.7;;
61570;SDS011;47463;49.884;10.010;2022-12-13T02:20:07;47.9;;;19.6;;
61570;SDS011;47463;49.884;10.010;2022-12-13T02:25:06;49.3;;;19.2;;
61570;SDS011;47463;49.884;10.010;2022-12-13T02:35:02;59;;;19.9;;
61570;SDS011;47463;49.884;10.010;2022-12-13T02:40:02;47.6;;;19.6;;
61570;SDS011;47463;49.884;10.010;2022-12-13T02:45:00;48.1;;;20.8;;
61570;SDS011;47463;49.884;10.010;2022-12-13T02:50:01;53.9;;;21.1;;
61570;SDS011;47463;49.884;10.010;2022-12-13T02:55:04;52.6;;;21.6;;
61570;SDS011;47463;49.884;10.010;2022-12-13T03:00:01;56.9;;;20.6;;
61570;SDS011;47463;49.884;10.010;2022-12-13T03:05:01;56.9;;;20.6;;
61570;SDS011;47463;49.884;10.010;2022-12-13T03:10:01;55.9;;;20;;
61570;SDS011;47463;49.884;10.010;2022-12-13T03:15:01;56.5;;;21.4;;
61570;SDS011;47463;49.884;10.010;2022-12-13T03:20:00;49.9;;;19.5;;
61570;SDS011;47463;49.884;10.010;2022-12-13T03:25:00;50.2;;;20;;
61570;SDS011;47463;49.884;10.010;2022-12-13T03:30:00;50.9;;;18.8;;
61570;SDS011;47463;49.884;10.010;2022-12-13T03:35:00;50.9;;;18.8;;
61570;SDS011;47463;49.884;10.010;2022-12-13T03:40:00;55.1;;;21;;
61570;SDS011;47463;49.884;10.010;2022-12-13T03:45:00;53.5;;;21.1;;
61570;SDS011;47463;49.884;10.010;2022-12-13T03:50:00;57.4;;;20.4;;
61570;SDS011;47463;49.884;10.010;2022-12-13T03:55:00;52.8;;;20.7;;
61570;SDS011;47463;49.884;10.010;2022-12-13T04:00:00;59.2;;;20.3;;
61570;SDS011;47463;49.884;10.010;2022-12-13T04:05:00;59.2;;;20.3;;
61570;SDS011;47463;49.884;10.010;2022-12-13T04:10:00;52.1;;;19.9;;
61570;SDS011;47463;49.884;10.010;2022-12-13T04:15:00;46.4;;;19.4;;
61570;SDS011;47463;49.884;10.010;2022-12-13T04:20:00;47.7;;;18;;
61570;SDS011;47463;49.884;10.010;2022-12-13T04:25:00;52;;;19.2;;
61570;SDS011;47463;49.884;10.010;2022-12-13T04:30:00;51.2;;;19.8;;
61570;SDS011;47463;49.884;10.010;2022-12-13T04:35:00;51.2;;;19.8;;
61570;SDS011;47463;49.884;10.010;2022-12-13T04:40:00;48.6;;;20;;
61570;SDS011;47463;49.884;10.010;2022-12-13T04:45:00;52;;;21;;
61570;SDS011;47463;49.884;10.010;2022-12-13T04:50:00;51.1;;;20;;
61570;SDS011;47463;49.884;10.010;2022-12-13T04:55:00;50.9;;;20.4;;
61570;SDS011;47463;49.884;10.010;2022-12-13T05:00:00;45.7;;;18.5;;
61570;SDS011;47463;49.884;10.010;2022-12-13T05:05:00;45.7;;;18.5;;
61570;SDS011;47463;49.884;10.010;2022-12-13T05:10:00;49.7;;;19.6;;
61570;SDS011;47463;49.884;10.010;2022-12-13T05:15:00;55.4;;;20.3;;
61570;SDS011;47463;49.884;10.010;2022-12-13T05:20:00;52.5;;;20.6;;
61570;SDS011;47463;49.884;10.010;2022-12-13T05:25:00;48.1;;;18.6;;
61570;SDS011;47463;49.884;10.010;2022-12-13T05:30:00;43.2;;;18.2;;
61570;SDS011;47463;49.884;10.010;2022-12-13T05:35:00;43.2;;;18.2;;
61570;SDS011;47463;49.884;10.010;2022-12-13T05:40:00;53.9;;;19.9;;
61570;SDS011;47463;49.884;10.010;2022-12-13T05:45:00;50.2;;;19.3;;
61570;SDS011;47463;49.884;10.010;2022-12-13T05:50:00;47;;;18.3;;
61570;SDS011;47463;49.884;10.010;2022-12-13T05:55:00;52.3;;;20.5;;
61570;SDS011;47463;49.884;10.010;2022-12-13T06:00:00;44.6;;;17.7;;
61570;SDS011;47463;49.884;10.010;2022-12-13T06:05:00;44.6;;;17.7;;
61570;SDS011;47463;49.884;10.010;2022-12-13T06:10:00;46.3;;;18.5;;
61570;SDS011;47463;49.884;10.010;2022-12-13T06:15:00;51.2;;;19;;
61570;SDS011;47463;49.884;10.010;2022-12-13T06:20:00;38.6;;;17;;
61570;SDS011;47463;49.884;10.010;2022-12-13T06:25:00;45.6;;;17.8;;
61570;SDS011;47463;49.884;10.010;2022-12-13T06:30:00;59.9;;;22.8;;
61570;SDS011;47463;49.884;10.010;2022-12-13T06:35:00;59.9;;;22.8;;
61570;SDS011;47463;49.884;10.010;2022-12-13T06:40:00;62;;;24.4;;
61570;SDS011;47463;49.884;10.010;2022-12-13T06:45:00;46.5;;;17.9;;
61570;SDS011;47463;49.884;10.010;2022-12-13T06:50:00;50.4;;;19.5;;
61570;SDS011;47463;49.884;10.010;2022-12-13T06:55:00;50.2;;;18.5;;
61570;SDS011;47463;49.884;10.010;2022-12-13T07:00:00;48.1;;;17.5;;
61570;SDS011;47463;49.884;10.010;2022-12-13T07:05:00;48.1;;;17.5;;
61570;SDS011;47463;49.884;10.010;2022-12-13T07:10:00;42.2;;;16.8;;
61570;SDS011;47463;49.884;10.010;2022-12-13T07:15:00;46.5;;;19;;
61570;SDS011;47463;49.884;10.010;2022-12-13T07:20:00;42.8;;;17.5;;
61570;SDS011;47463;49.884;10.010;2022-12-13T07:25:00;48.8;;;18.7;;
61570;SDS011;47463;49.884;10.010;2022-12-13T07:30:00;50.2;;;19.1;;
61570;SDS011;47463;49.884;10.010;2022-12-13T07:35:00;50.2;;;19.1;;
61570;SDS011;47463;49.884;10.010;2022-12-13T07:40:00;42.7;;;17.7;;
61570;SDS011;47463;49.884;10.010;2022-12-13T07:45:00;45.7;;;17.9;;
61570;SDS011;47463;49.884;10.010;2022-12-13T07:50:00;45.5;;;18.4;;
61570;SDS011;47463;49.884;10.010;2022-12-13T07:55:00;40.4;;;17.1;;
61570;SDS011;47463;49.884;10.010;2022-12-13T08:00:00;40;;;17.1;;
61570;SDS011;47463;49.884;10.010;2022-12-13T08:05:00;40;;;17.1;;
61570;SDS011;47463;49.884;10.010;2022-12-13T08:10:00;46.9;;;18.5;;
61570;SDS011;47463;49.884;10.010;2022-12-13T08:15:00;37.6;;;15.5;;
61570;SDS011;47463;49.884;10.010;2022-12-13T08:20:00;36.7;;;16.6;;
61570;SDS011;47463;49.884;10.010;2022-12-13T08:25:00;34.9;;;17.6;;
61570;SDS011;47463;49.884;10.010;2022-12-13T08:30:00;35.4;;;18.5;;
61570;SDS011;47463;49.884;10.010;2022-12-13T08:35:00;35.4;;;18.5;;
61570;SDS011;47463;49.884;10.010;2022-12-13T08:40:00;39.3;;;19.6;;
61570;SDS011;47463;49.884;10.010;2022-12-13T08:45:00;38.5;;;21.7;;
61570;SDS011;47463;49.884;10.010;2022-12-13T08:50:00;41.7;;;21.8;;
61570;SDS011;47463;49.884;10.010;2022-12-13T08:55:00;37.7;;;20.3;;
61570;SDS011;47463;49.884;10.010;2022-12-13T09:00:00;41.2;;;19.9;;
61570;SDS011;47463;49.884;10.010;2022-12-13T09:05:00;41.2;;;19.9;;
61570;SDS011;47463;49.884;10.010;2022-12-13T09:10:00;40.8;;;18;;
61570;SDS011;47463;49.884;10.010;2022-12-13T09:15:00;31.8;;;17.1;;
61570;SDS011;47463;49.884;10.010;2022-12-13T09:20:00;32.9;;;19;;
61570;SDS011;47463;49.884;10.010;2022-12-13T09:25:00;33;;;19.3;;
61570;SDS011;47463;49.884;10.010;2022-12-13T09:30:00;34.5;;;20.4;;
61570;SDS011;47463;49.884;10.010;2022-12-13T09:35:00;34.5;;;20.4;;
61570;SDS011;47463;49.884;10.010;2022-12-13T09:40:00;36.2;;;17.5;;
61570;SDS011;47463;49.884;10.010;2022-12-13T09:45:00;35;;;17.3;;
61570;SDS011;47463;49.884;10.010;2022-12-13T09:50:00;34.5;;;17.6;;
61570;SDS011;47463;49.884;10.010;2022-12-13T09:55:00;32.4;;;15.8;;
61570;SDS011;47463;49.884;10.010;2022-12-13T10:00:00;36.2;;;15.4;;
61570;SDS011;47463;49.884;10.010;2022-12-13T10:05:07;36.2;;;15.4;;
61570;SDS011;47463;49.884;10.010;2022-12-13T10:10:00;32;;;15.2;;
61570;SDS011;47463;49.884;10.010;2022-12-13T10:15:00;34.6;;;15.2;;
61570;SDS011;47463;49.884;10.010;2022-12-13T10:20:00;31.8;;;15.1;;
61570;SDS011;47463;49.884;10.010;2022-12-13T10:25:00;35.8;;;16.4;;
61570;SDS011;47463;49.884;10.010;2022-12-13T10:30:01;35.4;;;16;;
61570;SDS011;47463;49.884;10.010;2022-12-13T10:35:00;35.4;;;16;;
61570;SDS011;47463;49.884;10.010;2022-12-13T10:40:00;36.9;;;16.1;;
61570;SDS011;47463;49.884;10.010;2022-12-13T10:45:08;35.4;;;17.6;;
61570;SDS011;47463;49.884;10.010;2022-12-13T10:50:00;35.3;;;15.6;;
61570;SDS011;47463;49.884;10.010;2022-12-13T10:55:00;34.5;;;15.7;;
61570;SDS011;47463;49.884;10.010;2022-12-13T11:00:00;33.9;;;15.2;;
61570;SDS011;47463;49.884;10.010;2022-12-13T11:05:15;33.9;;;15.2;;
61570;SDS011;47463;49.884;10.010;2022-12-13T11:10:14;35.1;;;16.2;;
61570;SDS011;47463;49.884;10.010;2022-12-13T11:15:00;37.4;;;16.2;;
61570;SDS011;47463;49.884;10.010;2022-12-13T11:20:01;34.1;;;16.4;;
61570;SDS011;47463;49.884;10.010;2022-12-13T11:25:00;39.6;;;16.6;;
61570;SDS011;47463;49.884;10.010;2022-12-13T11:30:08;39.2;;;17.2;;
61570;SDS011;47463;49.884;10.010;2022-12-13T11:35:01;39.2;;;17.2;;
61570;SDS011;47463;49.884;10.010;2022-12-13T11:40:02;35.6;;;16.6;;
61570;SDS011;47463;49.884;10.010;2022-12-13T11:45:01;42.2;;;17.7;;
61570;SDS011;47463;49.884;10.010;2022-12-13T11:50:00;36.4;;;16.1;;
61570;SDS011;47463;49.884;10.010;2022-12-13T11:55:00;37.6;;;17.1;;
61570;SDS011;47463;49.884;10.010;2022-12-13T12:00:02;33.3;;;16.8;;
61570;SDS011;47463;49.884;10.010;2022-12-13T12:05:01;33.3;;;16.8;;
61570;SDS011;47463;49.884;10.010;2022-12-13T12:10:02;33.1;;;15.4;;
61570;SDS011;47463;49.884;10.010;2022-12-13T12:15:01;35.8;;;16.5;;
61570;SDS011;47463;49.884;10.010;2022-12-13T12:20:00;34.9;;;15.6;;
61570;SDS011;47463;49.884;10.010;2022-12-13T12:25:04;34.5;;;15.4;;
61570;SDS011;47463;49.884;10.010;2022-12-13T12:30:02;33.4;;;14.3;;
61570;SDS011;47463;49.884;10.010;2022-12-13T12:35:03;33.4;;;14.3;;
61570;SDS011;47463;49.884;10.010;2022-12-13T12:40:06;34.7;;;13.8;;
61570;SDS011;47463;49.884;10.010;2022-12-13T12:45:03;28.4;;;13.4;;
61570;SDS011;47463;49.884;10.010;2022-12-13T12:50:02;31;;;14;;
61570;SDS011;47463;49.884;10.010;2022-12-13T12:55:02;32.9;;;15;;
61570;SDS011;47463;49.884;10.010;2022-12-13T13:00:01;32;;;14.7;;
61570;SDS011;47463;49.884;10.010;2022-12-13T13:05:01;32;;;14.7;;
61570;SDS011;47463;49.884;10.010;2022-12-13T13:10:00;34.1;;;14.5;;
61570;SDS011;47463;49.884;10.010;2022-12-13T13:15:00;28.5;;;13.4;;
61570;SDS011;47463;49.884;10.010;2022-12-13T13:20:10;28.5;;;12.6;;
61570;SDS011;47463;49.884;10.010;2022-12-13T13:25:12;26.2;;;12.5;;
61570;SDS011;47463;49.884;10.010;2022-12-13T13:30:04;23.7;;;11.3;;
61570;SDS011;47463;49.884;10.010;2022-12-13T13:36:04;23.7;;;11.3;;
61570;SDS011;47463;49.884;10.010;2022-12-13T13:40:01;21.2;;;10.8;;
61570;SDS011;47463;49.884;10.010;2022-12-13T13:45:01;27.1;;;10.9;;
61570;SDS011;47463;49.884;10.010;2022-12-13T13:50:01;23.6;;;10.4;;
61570;SDS011;47463;49.884;10.010;2022-12-13T13:55:07;23.7;;;12.2;;
61570;SDS011;47463;49.884;10.010;2022-12-13T14:00:37;22.6;;;11;;
61570;SDS011;47463;49.884;10.010;2022-12-13T14:05:37;22.6;;;11;;
61570;SDS011;47463;49.884;10.010;2022-12-13T14:10:03;22.8;;;11;;
61570;SDS011;47463;49.884;10.010;2022-12-13T14:21:06;22.4;;;11.1;;
61570;SDS011;47463;49.884;10.010;2022-12-13T14:25:07;21.7;;;11.3;;
61570;SDS011;47463;49.884;10.010;2022-12-13T14:30:00;22.8;;;11.7;;
61570;SDS011;47463;49.884;10.010;2022-12-13T14:35:00;22.8;;;11.7;;
61570;SDS011;47463;49.884;10.010;2022-12-13T14:40:00;22.7;;;10.2;;
61570;SDS011;47463;49.884;10.010;2022-12-13T14:45:11;25;;;11.7;;
61570;SDS011;47463;49.884;10.010;2022-12-13T14:50:00;25.6;;;12.3;;
61570;SDS011;47463;49.884;10.010;2022-12-13T14:55:00;24.7;;;11.4;;
61570;SDS011;47463;49.884;10.010;2022-12-13T15:00:00;30.1;;;14.9;;
61570;SDS011;47463;49.884;10.010;2022-12-13T15:05:01;30.1;;;14.9;;
61570;SDS011;47463;49.884;10.010;2022-12-13T15:10:00;32.6;;;15.8;;
61570;SDS011;47463;49.884;10.010;2022-12-13T15:15:01;26.5;;;14.9;;
61570;SDS011;47463;49.884;10.010;2022-12-13T15:20:00;27.1;;;14.1;;
61570;SDS011;47463;49.884;10.010;2022-12-13T15:25:00;27.6;;;12.9;;
61570;SDS011;47463;49.884;10.010;2022-12-13T15:30:00;29.2;;;14.2;;
61570;SDS011;47463;49.884;10.010;2022-12-13T15:35:13;29.2;;;14.2;;
61570;SDS011;47463;49.884;10.010;2022-12-13T15:40:00;33.4;;;16;;
61570;SDS011;47463;49.884;10.010;2022-12-13T15:45:00;28.7;;;14.8;;
61570;SDS011;47463;49.884;10.010;2022-12-13T15:50:01;30.5;;;14.7;;
61570;SDS011;47463;49.884;10.010;2022-12-13T15:55:00;28;;;14;;
61570;SDS011;47463;49.884;10.010;2022-12-13T16:00:00;31.8;;;15.1;;
61570;SDS011;47463;49.884;10.010;2022-12-13T16:05:08;31.8;;;15.1;;
61570;SDS011;47463;49.884;10.010;2022-12-13T16:10:00;25.3;;;12.9;;
61570;SDS011;47463;49.884;10.010;2022-12-13T16:15:05;28.6;;;12.9;;
61570;SDS011;47463;49.884;10.010;2022-12-13T16:20:00;25.3;;;12.1;;
61570;SDS011;47463;49.884;10.010;2022-12-13T16:25:00;26;;;12.4;;
61570;SDS011;47463;49.884;10.010;2022-12-13T16:30:00;26.3;;;12.8;;
61570;SDS011;47463;49.884;10.010;2022-12-13T16:35:00;26.3;;;12.8;;
61570;SDS011;47463;49.884;10.010;2022-12-13T16:40:00;28.7;;;15.4;;
61570;SDS011;47463;49.884;10.010;2022-12-13T16:45:00;27.1;;;14.6;;
61570;SDS011;47463;49.884;10.010;2022-12-13T16:50:00;27.8;;;12.6;;
61570;SDS011;47463;49.884;10.010;2022-12-13T16:55:00;23.8;;;12.2;;
61570;SDS011;47463;49.884;10.010;2022-12-13T17:00:00;22.2;;;10.9;;
61570;SDS011;47463;49.884;10.010;2022-12-13T17:05:00;22.2;;;10.9;;
61570;SDS011;47463;49.884;10.010;2022-12-13T17:10:00;24.4;;;12;;
61570;SDS011;47463;49.884;10.010;2022-12-13T17:15:00;24.3;;;11.4;;
61570;SDS011;47463;49.884;10.010;2022-12-13T17:20:00;21.6;;;10.9;;
61570;SDS011;47463;49.884;10.010;2022-12-13T17:25:00;23.6;;;11.4;;
61570;SDS011;47463;49.884;10.010;2022-12-13T17:30:00;26.6;;;13.4;;
61570;SDS011;47463;49.884;10.010;2022-12-13T17:35:00;26.6;;;13.4;;
61570;SDS011;47463;49.884;10.010;2022-12-13T17:40:00;23.7;;;12.2;;
61570;SDS011;47463;49.884;10.010;2022-12-13T17:45:00;24.1;;;11.6;;
61570;SDS011;47463;49.884;10.010;2022-12-13T17:50:00;23.7;;;11.2;;
61570;SDS011;47463;49.884;10.010;2022-12-13T17:55:00;21.7;;;11.2;;
61570;SDS011;47463;49.884;10.010;2022-12-13T18:00:00;23.5;;;11.3;;
61570;SDS011;47463;49.884;10.010;2022-12-13T18:05:00;23.5;;;11.3;;
61570;SDS011;47463;49.884;10.010;2022-12-13T18:10:00;27.1;;;12.3;;
61570;SDS011;47463;49.884;10.010;2022-12-13T18:15:00;26.7;;;13.1;;
61570;SDS011;47463;49.884;10.010;2022-12-13T18:20:00;25.8;;;13.1;;
61570;SDS011;47463;49.884;10.010;2022-12-13T18:25:00;32.3;;;14;;
61570;SDS011;47463;49.884;10.010;2022-12-13T18:30:00;33.4;;;15.7;;
61570;SDS011;47463;49.884;10.010;2022-12-13T18:35:00;33.4;;;15.7;;
61570;SDS011;47463;49.884;10.010;2022-12-13T18:40:00;32.7;;;15;;
61570;SDS011;47463;49.884;10.010;2022-12-13T18:45:00;35.1;;;15.5;;
61570;SDS011;47463;49.884;10.010;2022-12-13T18:50:00;34.1;;;15.8;;
61570;SDS011;47463;49.884;10.010;2022-12-13T18:55:00;35.7;;;16.2;;
61570;SDS011;47463;49.884;10.010;2022-12-13T19:00:00;34.6;;;15.1;;
61570;SDS011;47463;49.884;10.010;2022-12-13T19:05:00;34.6;;;15.1;;
61570;SDS011;47463;49.884;10.010;2022-12-13T19:10:00;31.8;;;15.8;;
61570;SDS011;47463;49.884;10.010;2022-12-13T19:15:00;33.3;;;15.4;;
61570;SDS011;47463;49.884;10.010;2022-12-13T19:20:00;33.1;;;15.4;;
61570;SDS011;47463;49.884;10.010;2022-12-13T19:25:00;31.5;;;14.8;;
61570;SDS011;47463;49.884;10.010;2022-12-13T19:30:00;33.7;;;14.8;;
61570;SDS011;47463;49.884;10.010;2022-12-13T19:35:00;33.7;;;14.8;;
61570;SDS011;47463;49.884;10.010;2022-12-13T19:40:00;31.8;;;14.3;;
61570;SDS011;47463;49.884;10.010;2022-12-13T19:45:00;31.6;;;13.9;;
61570;SDS011;47463;49.884;10.010;2022-12-13T19:50:00;28.7;;;14.9;;
61570;SDS011;47463;49.884;10.010;2022-12-13T19:55:00;27.3;;;13.6;;
61570;SDS011;47463;49.884;10.010;2022-12-13T20:00:00;36.5;;;16.6;;
61570;SDS011;47463;49.884;10.010;2022-12-13T20:05:00;36.5;;;16.6;;
61570;SDS011;47463;49.884;10.010;2022-12-13T20:10:00;27.6;;;14.4;;
61570;SDS011;47463;49.884;10.010;2022-12-13T20:15:00;24.7;;;12.6;;
61570;SDS011;47463;49.884;10.010;2022-12-13T20:20:00;29.3;;;14.6;;
61570;SDS011;47463;49.884;10.010;2022-12-13T20:25:00;29.1;;;13.3;;
61570;SDS011;47463;49.884;10.010;2022-12-13T20:30:00;24.8;;;12.8;;
61570;SDS011;47463;49.884;10.010;2022-12-13T20:35:00;24.8;;;12.8;;
61570;SDS011;47463;49.884;10.010;2022-12-13T20:40:00;30.1;;;13.1;;
61570;SDS011;47463;49.884;10.010;2022-12-13T20:45:00;25.8;;;13.6;;
61570;SDS011;47463;49.884;10.010;2022-12-13T20:50:00;28.6;;;13.1;;
61570;SDS011;47463;49.884;10.010;2022-12-13T20:55:00;26;;;13.6;;
61570;SDS011;47463;49.884;10.010;2022-12-13T21:00:00;30.8;;;13.4;;
61570;SDS011;47463;49.884;10.010;2022-12-13T21:05:00;30.8;;;13.4;;
61570;SDS011;47463;49.884;10.010;2022-12-13T21:10:00;30.4;;;14.1;;
61570;SDS011;47463;49.884;10.010;2022-12-13T21:15:00;25.9;;;12.9;;
61570;SDS011;47463;49.884;10.010;2022-12-13T21:20:00;28.3;;;13.8;;
61570;SDS011;47463;49.884;10.010;2022-12-13T21:25:00;26;;;12.7;;
61570;SDS011;47463;49.884;10.010;2022-12-13T21:30:00;28.6;;;13.3;;
61570;SDS011;47463;49.884;10.010;2022-12-13T21:35:00;28.6;;;13.3;;
61570;SDS011;47463;49.884;10.010;2022-12-13T21:40:00;0;;;0;;
61570;SDS011;47463;49.884;10.010;2022-12-13T21:45:00;26;;;11.8;;
61570;SDS011;47463;49.884;10.010;2022-12-13T21:50:00;28.6;;;12.7;;
61570;SDS011;47463;49.884;10.010;2022-12-13T21:55:03;27.4;;;13.3;;
61570;SDS011;47463;49.884;10.010;2022-12-13T22:00:00;27.4;;;13.3;;
61570;SDS011;47463;49.884;10.010;2022-12-13T22:05:00;28.4;;;14;;
61570;SDS011;47463;49.884;10.010;2022-12-13T22:10:00;29.2;;;13.2;;
61570;SDS011;47463;49.884;10.010;2022-12-13T22:15:00;23.9;;;12;;
61570;SDS011;47463;49.884;10.010;2022-12-13T22:20:00;27.3;;;11.9;;
61570;SDS011;47463;49.884;10.010;2022-12-13T22:25:00;22.5;;;10.6;;
61570;SDS011;47463;49.884;10.010;2022-12-13T22:30:00;22.5;;;10.6;;
61570;SDS011;47463;49.884;10.010;2022-12-13T22:35:00;23.8;;;11.1;;
61570;SDS011;47463;49.884;10.010;2022-12-13T22:40:00;24.3;;;11.5;;
61570;SDS011;47463;49.884;10.010;2022-12-13T22:45:00;23.7;;;11.1;;
61570;SDS011;47463;49.884;10.010;2022-12-13T22:50:00;23.2;;;10.2;;
61570;SDS011;47463;49.884;10.010;2022-12-13T22:55:00;19;;;9.9;;
61570;SDS011;47463;49.884;10.010;2022-12-13T23:00:00;19;;;9.9;;
61570;SDS011;47463;49.884;10.010;2022-12-13T23:05:00;21.8;;;10.5;;
61570;SDS011;47463;49.884;10.010;2022-12-13T23:10:00;23;;;11;;
61570;SDS011;47463;49.884;10.010;2022-12-13T23:15:00;20.3;;;11.1;;
61570;SDS011;47463;49.884;10.010;2022-12-13T23:20:00;20.9;;;9.9;;
61570;SDS011;47463;49.884;10.010;2022-12-13T23:25:00;15.1;;;7.3;;
61570;SDS011;47463;49.884;10.010;2022-12-13T23:30:00;15.1;;;7.3;;
61570;SDS011;47463;49.884;10.010;2022-12-13T23:35:00;18.3;;;8.4;;
61570;SDS011;47463;49.884;10.010;2022-12-13T23:40:00;18.4;;;9.6;;
61570;SDS011;47463;49.884;10.010;2022-12-13T23:45:00;21.5;;;10.1;;
61570;SDS011;47463;49.884;10.010;2022-12-13T23:50:00;19.3;;;9.1;;
61570;SDS011;47463;49.884;10.010;2022-12-13T23:55:00;19.2;;;9.7;;
